createdAt,value
2019-03-24T00:00:11.838Z,1.07
2019-03-24T00:02:40.528Z,1.80
2019-03-24T00:05:09.141Z,4.30
2019-03-24T00:07:37.887Z,17.60
2019-03-24T00:10:07.899Z,2.43
2019-03-24T00:12:36.565Z,1.87
2019-03-24T00:15:08.229Z,2.33
2019-03-24T00:17:36.904Z,2.00
2019-03-24T00:20:10.244Z,1.53
2019-03-24T00:22:38.872Z,1.90
2019-03-24T00:25:07.690Z,1.73
2019-03-24T00:27:36.391Z,1.77
2019-03-24T00:30:07.275Z,2.00
2019-03-24T00:32:35.875Z,1.67
2019-03-24T00:35:06.553Z,1.43
2019-03-24T00:37:35.209Z,1.73
2019-03-24T00:40:05.395Z,1.60
2019-03-24T00:42:34.014Z,1.70
2019-03-24T00:45:02.660Z,1.87
2019-03-24T00:47:31.290Z,2.17
2019-03-24T00:49:59.978Z,1.50
2019-03-24T00:52:28.576Z,1.40
2019-03-24T00:54:57.266Z,1.47
2019-03-24T00:57:25.933Z,1.40
2019-03-24T00:59:54.614Z,1.60
2019-03-24T01:02:23.227Z,1.20
2019-03-24T01:04:51.842Z,1.20
2019-03-24T01:07:20.491Z,1.40
2019-03-24T01:09:49.163Z,1.60
2019-03-24T01:12:17.772Z,1.50
2019-03-24T01:14:46.457Z,1.27
2019-03-24T01:17:15.081Z,2.37
2019-03-24T01:19:43.690Z,1.20
2019-03-24T01:22:12.367Z,1.33
2019-03-24T01:24:41.052Z,1.30
2019-03-24T01:27:09.663Z,1.70
2019-03-24T01:29:38.336Z,1.57
2019-03-24T01:32:06.992Z,2.13
2019-03-24T01:34:35.650Z,4.23
2019-03-24T01:37:04.328Z,1.70
2019-03-24T01:39:32.944Z,1.70
2019-03-24T01:42:01.632Z,1.70
2019-03-24T01:44:30.239Z,1.90
2019-03-24T01:46:58.910Z,1.63
2019-03-24T01:49:27.582Z,1.93
2019-03-24T01:51:56.189Z,1.77
2019-03-24T01:54:24.970Z,1.57
2019-03-24T01:56:53.707Z,1.47
2019-03-24T01:59:22.414Z,1.40
2019-03-24T02:01:51.080Z,1.70
2019-03-24T02:04:19.772Z,1.80
2019-03-24T02:06:48.451Z,1.43
2019-03-24T02:09:17.130Z,1.83
2019-03-24T02:11:45.781Z,1.97
2019-03-24T02:14:14.421Z,2.10
2019-03-24T02:16:43.109Z,1.70
2019-03-24T02:19:11.783Z,1.87
2019-03-24T02:21:40.453Z,1.83
2019-03-24T02:24:09.064Z,2.00
2019-03-24T02:26:37.732Z,2.20
2019-03-24T02:29:06.336Z,1.80
2019-03-24T02:31:34.987Z,2.40
2019-03-24T02:34:03.656Z,1.30
2019-03-24T02:36:32.389Z,1.50
2019-03-24T02:39:01.058Z,1.80
2019-03-24T02:41:29.701Z,2.10
2019-03-24T02:43:58.400Z,2.17
2019-03-24T02:46:27.079Z,2.03
2019-03-24T02:48:55.757Z,2.10
2019-03-24T02:51:24.359Z,1.80
2019-03-24T02:53:53.040Z,2.30
2019-03-24T02:56:21.771Z,1.53
2019-03-24T02:58:50.412Z,1.90
2019-03-24T03:01:19.090Z,3.00
2019-03-24T03:03:47.695Z,2.10
2019-03-24T03:06:16.361Z,1.97
2019-03-24T03:08:45.043Z,2.30
2019-03-24T03:11:13.710Z,2.03
2019-03-24T03:13:42.433Z,2.17
2019-03-24T03:16:11.040Z,2.27
2019-03-24T03:18:39.807Z,1.37
2019-03-24T03:21:08.418Z,2.13
2019-03-24T03:23:37.093Z,2.13
2019-03-24T03:26:05.763Z,2.43
2019-03-24T03:28:34.404Z,1.60
2019-03-24T03:31:03.181Z,1.97
2019-03-24T03:33:31.884Z,2.10
2019-03-24T03:36:00.654Z,1.80
2019-03-24T03:38:29.345Z,1.80
2019-03-24T03:40:58.156Z,1.60
2019-03-24T03:43:26.918Z,2.07
2019-03-24T03:45:55.617Z,2.20
2019-03-24T03:48:24.295Z,1.90
2019-03-24T03:50:53.094Z,2.00
2019-03-24T03:53:21.761Z,1.97
2019-03-24T03:55:50.371Z,2.20
2019-03-24T03:58:19.045Z,2.00
2019-03-24T04:00:47.724Z,1.70
2019-03-24T04:03:16.336Z,2.70
2019-03-24T04:05:45.008Z,1.80
2019-03-24T04:08:13.685Z,1.90
2019-03-24T04:10:42.386Z,2.00
2019-03-24T04:13:11.013Z,1.53
2019-03-24T04:15:39.775Z,2.13
2019-03-24T04:18:08.450Z,2.20
2019-03-24T04:20:37.122Z,2.53
2019-03-24T04:23:05.732Z,2.10
2019-03-24T04:25:34.399Z,2.43
2019-03-24T04:28:03.039Z,2.03
2019-03-24T04:30:31.731Z,2.40
2019-03-24T04:33:00.348Z,2.20
2019-03-24T04:35:29.014Z,1.80
2019-03-24T04:37:57.702Z,1.40
2019-03-24T04:40:26.307Z,1.53
2019-03-24T04:42:54.977Z,1.80
2019-03-24T04:45:23.667Z,2.23
2019-03-24T04:47:52.352Z,1.53
2019-03-24T04:50:21.166Z,2.37
2019-03-24T04:52:49.833Z,1.73
2019-03-24T04:55:18.513Z,2.00
2019-03-24T04:57:47.304Z,2.20
2019-03-24T05:00:16.400Z,2.30
2019-03-24T05:02:46.112Z,1.83
2019-03-24T05:05:14.794Z,2.03
2019-03-24T05:07:43.586Z,2.63
2019-03-24T05:10:15.344Z,2.30
2019-03-24T05:12:44.033Z,2.20
2019-03-24T05:15:12.719Z,2.40
2019-03-24T05:17:41.391Z,3.30
2019-03-24T05:20:10.107Z,2.67
2019-03-24T05:22:38.785Z,4.87
2019-03-24T05:25:07.392Z,3.23
2019-03-24T05:27:36.061Z,3.40
2019-03-24T05:30:06.846Z,3.70
2019-03-24T05:32:35.514Z,2.70
2019-03-24T05:35:05.838Z,2.70
2019-03-24T05:37:34.833Z,1.67
2019-03-24T05:40:04.410Z,3.00
2019-03-24T05:42:33.071Z,2.40
2019-03-24T05:45:02.275Z,2.00
2019-03-24T05:47:37.128Z,2.37
2019-03-24T05:50:01.413Z,1.50
2019-03-24T05:52:30.228Z,1.90
2019-03-24T05:54:59.223Z,1.77
2019-03-24T05:57:30.404Z,2.17
2019-03-24T05:59:59.173Z,2.40
2019-03-24T06:02:27.969Z,1.73
2019-03-24T06:04:57.133Z,1.20
2019-03-24T06:07:25.858Z,1.60
2019-03-24T06:09:54.683Z,1.80
2019-03-24T06:12:23.583Z,1.73
2019-03-24T06:14:52.375Z,2.77
2019-03-24T06:17:21.141Z,1.73
2019-03-24T06:19:49.943Z,1.80
2019-03-24T06:22:18.626Z,1.40
2019-03-24T06:24:47.347Z,2.13
2019-03-24T06:27:16.128Z,1.80
2019-03-24T06:29:45.612Z,1.70
2019-03-24T06:32:14.259Z,1.97
2019-03-24T06:34:42.975Z,2.33
2019-03-24T06:37:11.763Z,1.50
2019-03-24T06:39:40.422Z,1.60
2019-03-24T06:42:09.112Z,3.03
2019-03-24T06:44:37.796Z,2.80
2019-03-24T06:47:06.483Z,3.17
2019-03-24T06:49:35.112Z,3.83
2019-03-24T06:52:03.799Z,3.40
2019-03-24T06:54:32.474Z,4.40
2019-03-24T06:57:01.111Z,4.30
2019-03-24T06:59:29.745Z,4.20
2019-03-24T07:02:00.019Z,4.23
2019-03-24T07:04:28.803Z,4.63
2019-03-24T07:06:57.459Z,4.57
2019-03-24T07:09:26.159Z,3.90
2019-03-24T07:11:54.820Z,5.87
2019-03-24T07:14:23.552Z,16.00
2019-03-24T07:16:52.281Z,8.67
2019-03-24T07:19:20.972Z,7.10
2019-03-24T07:21:55.740Z,5.97
2019-03-24T07:24:24.421Z,5.70
2019-03-24T07:26:53.231Z,5.93
2019-03-24T07:29:21.929Z,4.97
2019-03-24T07:31:52.119Z,6.27
2019-03-24T07:34:20.817Z,4.70
2019-03-24T07:36:49.515Z,5.57
2019-03-24T07:39:19.510Z,4.20
2019-03-24T07:41:48.162Z,5.23
2019-03-24T07:44:18.422Z,5.10
2019-03-24T07:46:48.647Z,7.00
2019-03-24T07:49:17.357Z,9.17
2019-03-24T07:51:45.969Z,48.20
2019-03-24T07:54:14.642Z,5.53
2019-03-24T07:56:43.322Z,5.43
2019-03-24T07:59:12.012Z,5.60
2019-03-24T08:01:40.691Z,6.00
2019-03-24T08:04:09.316Z,5.00
2019-03-24T08:06:38.002Z,4.60
2019-03-24T08:09:07.583Z,4.10
2019-03-24T08:11:36.276Z,3.50
2019-03-24T08:14:04.889Z,4.17
2019-03-24T08:16:36.577Z,3.70
2019-03-24T08:19:05.193Z,4.20
2019-03-24T08:21:39.738Z,3.83
2019-03-24T08:24:08.374Z,3.73
2019-03-24T08:26:37.050Z,3.13
2019-03-24T08:29:05.983Z,3.53
2019-03-24T08:31:34.649Z,4.53
2019-03-24T08:34:03.372Z,3.80
2019-03-24T08:36:32.014Z,3.27
2019-03-24T08:39:00.695Z,3.47
2019-03-24T08:41:30.991Z,3.30
2019-03-24T08:44:01.188Z,3.40
2019-03-24T08:46:30.053Z,3.30
2019-03-24T08:48:58.738Z,2.80
2019-03-24T08:51:27.421Z,3.40
2019-03-24T08:53:56.024Z,3.03
2019-03-24T08:56:24.772Z,9.10
2019-03-24T08:58:53.376Z,4.10
2019-03-24T09:01:23.561Z,2.70
2019-03-24T09:03:52.289Z,2.87
2019-03-24T09:06:21.014Z,2.53
2019-03-24T09:08:49.684Z,2.70
2019-03-24T09:11:18.354Z,3.73
2019-03-24T09:13:49.359Z,3.00
2019-03-24T09:16:17.983Z,3.83
2019-03-24T09:18:52.608Z,2.63
2019-03-24T09:21:19.508Z,3.13
2019-03-24T09:23:47.471Z,2.93
2019-03-24T09:26:16.156Z,3.67
2019-03-24T09:28:44.801Z,2.77
2019-03-24T09:31:13.485Z,3.40
2019-03-24T09:33:42.129Z,2.97
2019-03-24T09:36:10.827Z,3.50
2019-03-24T09:38:42.530Z,2.90
2019-03-24T09:41:11.213Z,3.30
2019-03-24T09:43:39.915Z,5.33
2019-03-24T09:46:08.599Z,4.73
2019-03-24T09:48:40.159Z,4.37
2019-03-24T09:51:08.935Z,2.53
2019-03-24T09:53:38.598Z,2.80
2019-03-24T09:56:07.259Z,2.87
2019-03-24T09:58:37.431Z,2.43
2019-03-24T10:01:06.138Z,2.40
2019-03-24T10:03:37.486Z,2.10
2019-03-24T10:06:06.211Z,2.40
2019-03-24T10:08:46.604Z,2.63
2019-03-24T10:11:06.857Z,2.57
2019-03-24T10:13:39.669Z,2.40
2019-03-24T10:16:08.288Z,3.40
2019-03-24T10:18:37.009Z,3.10
2019-03-24T10:21:07.257Z,2.60
2019-03-24T10:23:38.810Z,2.30
2019-03-24T10:26:07.813Z,2.47
2019-03-24T10:28:39.607Z,3.23
2019-03-24T10:31:08.320Z,3.70
2019-03-24T10:33:36.934Z,2.70
2019-03-24T10:36:05.639Z,3.03
2019-03-24T10:38:34.295Z,2.67
2019-03-24T10:41:03.089Z,3.40
2019-03-24T10:43:34.504Z,4.57
2019-03-24T10:46:03.099Z,4.07
2019-03-24T10:48:36.050Z,2.83
2019-03-24T10:51:04.707Z,3.90
2019-03-24T10:53:33.384Z,3.80
2019-03-24T10:56:02.000Z,3.07
2019-03-24T10:58:30.688Z,4.47
2019-03-24T11:00:59.381Z,3.70
2019-03-24T11:03:31.096Z,3.90
2019-03-24T11:05:59.759Z,4.20
2019-03-24T11:08:30.043Z,4.30
2019-03-24T11:10:58.671Z,3.63
2019-03-24T11:13:30.223Z,4.07
2019-03-24T11:15:59.725Z,4.60
2019-03-24T11:18:28.675Z,4.17
2019-03-24T11:20:57.293Z,3.47
2019-03-24T11:23:28.743Z,4.60
2019-03-24T11:25:57.416Z,4.40
2019-03-24T11:28:26.056Z,4.10
2019-03-24T11:30:56.879Z,3.37
2019-03-24T11:33:29.488Z,3.77
2019-03-24T11:35:57.488Z,4.47
2019-03-24T11:38:27.605Z,3.40
2019-03-24T11:40:56.304Z,4.07
2019-03-24T11:43:24.928Z,3.80
2019-03-24T11:45:53.686Z,4.70
2019-03-24T11:48:24.016Z,4.13
2019-03-24T11:50:54.437Z,3.53
2019-03-24T11:53:23.166Z,4.30
2019-03-24T11:55:51.894Z,4.87
2019-03-24T11:58:20.651Z,4.30
2019-03-24T12:00:49.286Z,3.87
2019-03-24T12:03:18.007Z,3.73
2019-03-24T12:05:46.727Z,3.90
2019-03-24T12:08:16.489Z,4.50
2019-03-24T12:10:45.352Z,4.10
2019-03-24T12:13:18.920Z,3.43
2019-03-24T12:15:47.645Z,4.00
2019-03-24T12:18:21.012Z,3.67
2019-03-24T12:20:49.698Z,3.40
2019-03-24T12:23:21.379Z,3.33
2019-03-24T12:25:50.086Z,3.37
2019-03-24T12:28:18.791Z,3.20
2019-03-24T12:30:47.401Z,2.70
2019-03-24T12:33:17.600Z,2.50
2019-03-24T12:35:46.288Z,2.50
2019-03-24T12:38:14.987Z,2.30
2019-03-24T12:40:43.613Z,3.20
2019-03-24T12:43:19.624Z,2.63
2019-03-24T12:45:46.991Z,2.60
2019-03-24T12:48:15.779Z,2.13
2019-03-24T12:50:45.974Z,2.23
2019-03-24T12:53:16.094Z,2.30
2019-03-24T12:55:44.783Z,2.20
2019-03-24T12:58:13.427Z,2.20
2019-03-24T13:00:42.082Z,1.97
2019-03-24T13:03:15.356Z,2.30
2019-03-24T13:05:43.977Z,1.63
2019-03-24T13:08:17.648Z,2.57
2019-03-24T13:10:47.045Z,1.93
2019-03-24T13:13:18.643Z,1.23
2019-03-24T13:15:50.215Z,1.90
2019-03-24T13:18:18.825Z,2.07
2019-03-24T13:20:47.513Z,1.97
2019-03-24T13:23:16.133Z,2.13
2019-03-24T13:25:44.750Z,3.27
2019-03-24T13:28:13.454Z,1.77
2019-03-24T13:30:42.063Z,2.60
2019-03-24T13:33:10.715Z,2.70
2019-03-24T13:35:39.371Z,14.33
2019-03-24T13:38:08.050Z,5.87
2019-03-24T13:40:36.741Z,2.30
2019-03-24T13:43:05.381Z,1.67
2019-03-24T13:45:33.994Z,1.97
2019-03-24T13:48:02.708Z,2.00
2019-03-24T13:50:31.983Z,1.97
2019-03-24T13:53:00.812Z,1.97
2019-03-24T13:55:29.429Z,1.83
2019-03-24T13:57:58.206Z,1.67
2019-03-24T14:00:26.818Z,2.20
2019-03-24T14:02:55.465Z,1.67
2019-03-24T14:05:24.101Z,2.20
2019-03-24T14:07:52.805Z,1.60
2019-03-24T14:10:21.512Z,3.10
2019-03-24T14:12:50.318Z,2.73
2019-03-24T14:15:19.084Z,1.97
2019-03-24T14:17:47.802Z,1.70
2019-03-24T14:20:17.969Z,1.30
2019-03-24T14:22:46.644Z,1.27
2019-03-24T14:25:15.282Z,1.30
2019-03-24T14:27:43.967Z,1.60
2019-03-24T14:30:13.155Z,2.43
2019-03-24T14:32:41.774Z,1.30
2019-03-24T14:35:10.562Z,1.23
2019-03-24T14:37:39.181Z,1.40
2019-03-24T14:40:08.602Z,2.20
2019-03-24T14:42:37.254Z,4.70
2019-03-24T14:45:10.121Z,1.87
2019-03-24T14:47:38.801Z,1.80
2019-03-24T14:50:07.915Z,1.53
2019-03-24T14:52:36.582Z,2.37
2019-03-24T14:55:06.525Z,1.93
2019-03-24T14:57:35.209Z,1.53
2019-03-24T15:00:05.837Z,1.30
2019-03-24T15:02:34.497Z,1.17
2019-03-24T15:05:03.187Z,1.73
2019-03-24T15:07:31.824Z,1.80
2019-03-24T15:10:00.471Z,1.60
2019-03-24T15:12:29.186Z,1.13
2019-03-24T15:14:57.887Z,2.57
2019-03-24T15:17:26.520Z,1.07
2019-03-24T15:19:55.196Z,1.33
2019-03-24T15:22:23.819Z,2.70
2019-03-24T15:24:52.498Z,0.80
2019-03-24T15:27:21.122Z,1.33
2019-03-24T15:29:49.781Z,5.00
2019-03-24T15:32:18.492Z,4.17
2019-03-24T15:34:47.108Z,3.60
2019-03-24T15:37:15.796Z,4.83
2019-03-24T15:39:45.984Z,3.97
2019-03-24T15:42:14.681Z,4.30
2019-03-24T15:44:43.316Z,3.57
2019-03-24T15:47:12.035Z,1.97
2019-03-24T15:49:40.659Z,2.50
2019-03-24T15:52:10.868Z,2.10
2019-03-24T15:54:39.596Z,2.10
2019-03-24T15:57:08.261Z,3.00
2019-03-24T15:59:36.970Z,2.10
2019-03-24T16:02:05.606Z,2.77
2019-03-24T16:04:34.221Z,1.83
2019-03-24T16:07:02.965Z,2.37
2019-03-24T16:09:31.574Z,2.03
2019-03-24T16:12:00.269Z,1.43
2019-03-24T16:14:28.966Z,2.37
2019-03-24T16:16:57.602Z,2.50
2019-03-24T16:19:28.558Z,2.50
2019-03-24T16:21:56.693Z,3.33
2019-03-24T16:24:25.293Z,3.40
2019-03-24T16:26:53.984Z,2.50
2019-03-24T16:29:22.611Z,2.60
2019-03-24T16:31:51.292Z,3.27
2019-03-24T16:34:20.006Z,3.60
2019-03-24T16:36:48.691Z,3.83
2019-03-24T16:39:17.341Z,2.90
2019-03-24T16:41:45.997Z,2.70
2019-03-24T16:44:14.661Z,3.30
2019-03-24T16:46:43.290Z,3.73
2019-03-24T16:49:12.002Z,3.53
2019-03-24T16:51:41.660Z,3.00
2019-03-24T16:54:10.646Z,2.90
2019-03-24T16:56:39.331Z,3.03
2019-03-24T16:59:08.031Z,2.97
2019-03-24T17:01:36.652Z,3.13
2019-03-24T17:04:05.365Z,3.00
2019-03-24T17:06:34.044Z,4.30
2019-03-24T17:09:02.747Z,3.80
2019-03-24T17:11:31.372Z,3.60
2019-03-24T17:14:00.043Z,3.20
2019-03-24T17:16:28.703Z,3.67
2019-03-24T17:18:57.376Z,3.70
2019-03-24T17:21:26.051Z,3.90
2019-03-24T17:23:54.738Z,4.30
2019-03-24T17:26:23.453Z,4.87
2019-03-24T17:28:52.132Z,4.70
2019-03-24T17:31:20.889Z,4.90
2019-03-24T17:33:49.572Z,4.90
2019-03-24T17:36:18.189Z,5.70
2019-03-24T17:38:46.912Z,5.33
2019-03-24T17:41:15.533Z,5.10
2019-03-24T17:43:44.344Z,5.50
2019-03-24T17:46:13.003Z,5.13
2019-03-24T17:48:41.725Z,4.17
2019-03-24T17:51:10.419Z,4.60
2019-03-24T17:53:42.125Z,5.93
2019-03-24T17:56:10.816Z,5.70
2019-03-24T17:58:39.460Z,4.53
2019-03-24T18:01:08.295Z,4.70
2019-03-24T18:03:36.922Z,4.57
2019-03-24T18:06:05.606Z,4.40
2019-03-24T18:08:34.452Z,4.43
2019-03-24T18:11:03.427Z,5.83
2019-03-24T18:13:32.219Z,6.47
2019-03-24T18:16:01.138Z,7.07
2019-03-24T18:18:29.872Z,7.93
2019-03-24T18:20:58.507Z,6.40
2019-03-24T18:23:27.232Z,6.30
2019-03-24T18:25:55.877Z,8.10
2019-03-24T18:28:24.537Z,7.57
2019-03-24T18:30:53.236Z,7.67
2019-03-24T18:33:22.291Z,8.70
2019-03-24T18:35:50.924Z,9.57
2019-03-24T18:38:19.594Z,11.73
2019-03-24T18:40:49.806Z,10.17
2019-03-24T18:43:18.472Z,9.30
2019-03-24T18:45:47.184Z,7.20
2019-03-24T18:48:17.389Z,7.50
2019-03-24T18:50:46.620Z,7.93
2019-03-24T18:53:15.355Z,7.43
2019-03-24T18:55:44.039Z,9.73
2019-03-24T18:58:12.690Z,9.10
2019-03-24T19:00:43.059Z,5.73
2019-03-24T19:03:11.688Z,8.17
2019-03-24T19:05:40.318Z,8.63
2019-03-24T19:08:10.198Z,7.27
2019-03-24T19:10:38.961Z,7.90
2019-03-24T19:13:07.596Z,8.23
2019-03-24T19:15:37.484Z,9.47
2019-03-24T19:18:06.506Z,8.07
2019-03-24T19:20:35.149Z,7.93
2019-03-24T19:23:03.864Z,9.97
2019-03-24T19:25:33.091Z,7.30
2019-03-24T19:28:03.467Z,8.90
2019-03-24T19:30:37.262Z,9.23
2019-03-24T19:33:06.578Z,9.03
2019-03-24T19:35:35.322Z,9.80
2019-03-24T19:38:04.148Z,10.50
2019-03-24T19:40:34.888Z,11.80
2019-03-24T19:43:03.596Z,11.40
2019-03-24T19:45:32.370Z,9.60
2019-03-24T19:48:01.165Z,9.97
2019-03-24T19:50:30.327Z,10.00
2019-03-24T19:52:58.957Z,10.00
2019-03-24T19:55:27.863Z,11.10
2019-03-24T19:57:56.498Z,11.93
2019-03-24T20:00:25.702Z,12.87
2019-03-24T20:02:54.349Z,11.57
2019-03-24T20:05:23.161Z,13.00
2019-03-24T20:07:51.932Z,13.87
2019-03-24T20:10:20.582Z,12.10
2019-03-24T20:12:49.295Z,12.30
2019-03-24T20:15:18.179Z,10.93
2019-03-24T20:17:46.828Z,12.53
2019-03-24T20:20:15.668Z,13.50
2019-03-24T20:22:55.575Z,13.40
2019-03-24T20:25:14.756Z,12.57
2019-03-24T20:27:43.470Z,12.13
2019-03-24T20:30:12.438Z,13.33
2019-03-24T20:32:41.139Z,11.13
2019-03-24T20:35:09.827Z,12.70
2019-03-24T20:37:38.479Z,12.80
2019-03-24T20:40:07.420Z,12.30
2019-03-24T20:42:36.467Z,13.03
2019-03-24T20:45:07.268Z,13.60
2019-03-24T20:47:36.050Z,13.50
2019-03-24T20:50:06.685Z,12.67
2019-03-24T20:52:35.365Z,12.80
2019-03-24T20:55:08.174Z,13.97
2019-03-24T20:57:36.965Z,13.87
2019-03-24T21:00:07.567Z,13.57
2019-03-24T21:02:37.790Z,14.07
2019-03-24T21:05:06.931Z,12.37
2019-03-24T21:07:35.553Z,14.13
2019-03-24T21:10:06.730Z,12.17
2019-03-24T21:12:35.587Z,14.63
2019-03-24T21:15:06.574Z,13.97
2019-03-24T21:17:35.284Z,15.07
2019-03-24T21:20:05.214Z,14.50
2019-03-24T21:22:33.917Z,16.13
2019-03-24T21:25:02.577Z,13.20
2019-03-24T21:27:31.250Z,14.13
2019-03-24T21:29:59.929Z,13.87
2019-03-24T21:32:28.770Z,16.40
2019-03-24T21:34:57.490Z,15.40
2019-03-24T21:37:26.123Z,13.97
2019-03-24T21:39:54.790Z,14.13
2019-03-24T21:42:23.407Z,16.60
2019-03-24T21:44:52.089Z,14.30
2019-03-24T21:47:20.702Z,14.20
2019-03-24T21:49:49.382Z,13.30
2019-03-24T21:52:18.041Z,12.90
2019-03-24T21:54:46.713Z,12.57
2019-03-24T21:57:15.351Z,13.80
2019-03-24T21:59:44.009Z,16.43
2019-03-24T22:02:12.770Z,17.80
2019-03-24T22:04:41.442Z,14.40
2019-03-24T22:07:10.141Z,14.70
2019-03-24T22:09:38.788Z,15.20
2019-03-24T22:12:07.450Z,15.20
2019-03-24T22:14:36.070Z,16.13
2019-03-24T22:17:04.768Z,15.03
2019-03-24T22:19:33.382Z,16.43
2019-03-24T22:22:02.076Z,18.87
2019-03-24T22:24:30.712Z,14.70
2019-03-24T22:26:59.400Z,16.07
2019-03-24T22:29:28.016Z,15.17
2019-03-24T22:31:56.731Z,15.03
2019-03-24T22:34:25.386Z,13.90
2019-03-24T22:36:55.844Z,12.70
2019-03-24T22:39:24.458Z,15.80
2019-03-24T22:41:53.156Z,13.47
2019-03-24T22:44:21.802Z,15.20
2019-03-24T22:46:50.431Z,14.80
2019-03-24T22:49:19.132Z,14.20
2019-03-24T22:51:47.833Z,13.53
2019-03-24T22:54:16.526Z,15.90
2019-03-24T22:56:45.228Z,15.17
2019-03-24T22:59:13.922Z,13.80
2019-03-24T23:01:42.534Z,14.33
2019-03-24T23:04:11.218Z,15.40
2019-03-24T23:06:39.841Z,16.60
2019-03-24T23:09:09.329Z,14.40
2019-03-24T23:11:37.949Z,15.83
2019-03-24T23:14:06.564Z,14.47
2019-03-24T23:16:35.244Z,15.00
2019-03-24T23:19:03.964Z,16.43
2019-03-24T23:21:32.636Z,13.80
2019-03-24T23:24:01.258Z,15.57
2019-03-24T23:26:29.980Z,15.70
2019-03-24T23:28:58.605Z,16.60
2019-03-24T23:31:27.206Z,16.90
2019-03-24T23:33:55.885Z,15.80
2019-03-24T23:36:24.610Z,18.20
2019-03-24T23:38:53.224Z,16.23
2019-03-24T23:41:21.902Z,16.10
2019-03-24T23:43:50.612Z,16.87
2019-03-24T23:46:19.238Z,18.67
2019-03-24T23:48:47.906Z,18.57
2019-03-24T23:51:17.126Z,16.13
2019-03-24T23:53:45.808Z,17.63
2019-03-24T23:56:14.495Z,16.20
2019-03-24T23:58:43.117Z,15.03
